This is the latest recevied weather packets stored in our database for station/object HB3YKO-13. If no packets are shown the sender has not sent any weather packets the latest 10 day(s).
| Time | Temp. | Humidity | Pressure | Rain* | Wind** | Luminosity | Snow |
|---|---|---|---|---|---|---|---|
| 1777748691 | -0.56° C | 45% | 0 hPa | 0 mm | - | - | - |
| 1777746591 | -0.56° C | 46% | 0 hPa | 0 mm | - | - | - |
| 1777746291 | 0° C | 46% | 0 hPa | 0 mm | - | - | - |
| 1777745692 | 0° C | 46% | 0 hPa | 0 mm | - | - | - |
| 1777745391 | 0° C | 45% | 0 hPa | 0 mm | - | - | - |
| 1777744791 | 0.56° C | 44% | 0 hPa | 0 mm | - | - | - |
| 1777739391 | 4.44° C | 36% | 0 hPa | 0 mm | - | - | - |
| 1777738791 | 4.44° C | 37% | 0 hPa | 0 mm | - | - | - |
| 1777738191 | 5° C | 36% | 0 hPa | 0 mm | - | - | - |
| 1777737592 | 4.44° C | 34% | 0 hPa | 0 mm | - | - | - |
| 1777737292 | 3.89° C | 34% | 0 hPa | 0 mm | - | - | - |
| 1777736992 | 5° C | 33% | 0 hPa | 0 mm | - | - | - |
| 1777736692 | 4.44° C | 33% | 0 hPa | 0 mm | - | - | - |
| 1777736392 | 5.56° C | 33% | 0 hPa | 0 mm | - | - | - |
| 1777735792 | 5.56° C | 32% | 0 hPa | 0 mm | - | - | - |
| 1777735492 | 5.56° C | 32% | 0 hPa | 0 mm | - | - | - |
| 1777735192 | 4.44° C | 32% | 0 hPa | 0 mm | - | - | - |
| 1777734892 | 6.11° C | 30% | 0 hPa | 0 mm | - | - | - |
| 1777734592 | 6.67° C | 31% | 0 hPa | 0 mm | - | - | - |
| 1777734292 | 6.67° C | 30% | 0 hPa | 0 mm | - | - | - |
| 1777733992 | 6.67° C | 30% | 0 hPa | 0 mm | - | - | - |
| 1777733692 | 6.67° C | 29% | 0 hPa | 0 mm | - | - | - |
| 1777733392 | 6.11° C | 29% | 0 hPa | 0 mm | - | - | - |
| 1777733092 | 6.11° C | 30% | 0 hPa | 0 mm | - | - | - |
| 1777732792 | 5.56° C | 32% | 0 hPa | 0 mm | - | - | - |
* Rain latest hour (hover to see other rain measurements)
** Current wind speed in m/s (hover to see current wind gust speed)